Peytonsburg, Kentucky
Current Conditions -  °F | °C
As of 7:49 AM on Friday 24 Oct 2014 (Local Time) from KEKQ Reporting Station
Haze Haze  
Wind Chill: 39°   Ceiling: Unl
Heat Index: 39°   Visibility: 2mi
Dew Point: 37°   Wind: 0mph
Humidity: 93%   Direction: NA
Pressure: 30.15"   Gusts: NA
Location:  36.7332°N, 85.3312°W
Report Text: KEKQ 241249Z AUTO 00000KT 2SM BR CLR 04/03 A3015 RMK AO2
Loading
Personal Weather Stations






























Interactive Weather Map
Tropical Storm Tracking
New forecast layout! Learn more

10-Day Weather Forecast

Advertisements
Track Severe Weather on mobile